Time;durP1;ratioP1;P1;durP2;ratioP2;P2;SDS_P1;SDS_P2;PMS_P1;PMS_P2;Temp;Humidity;BMP_temperature;BMP_pressure;BME280_temperature;BME280_humidity;BME280_pressure;Samples;Min_cycle;Max_cycle;Signal;HPM_P1;HPM_P2
2023/03/06 00:00:55;;;;;;;11.38;5.45;;;;;;;;;;4937294;28;20118;-73
2023/03/06 00:03:22;;;;;;;10.43;5.47;;;;;;;;;;4934804;28;20340;-73
2023/03/06 00:05:48;;;;;;;;;;;;;;;;;;4939848;28;20944;-73
2023/03/06 00:08:14;;;;;;;13.55;6.63;;;;;;;;;;4935337;28;19918;-73
2023/03/06 00:10:40;;;;;;;15.02;8.30;;;;;;;;;;4940345;28;20797;-73
2023/03/06 00:13:08;;;;;;;17.73;8.05;;;;;;;;;;4941309;28;20034;-73
2023/03/06 00:15:34;;;;;;;14.68;7.00;;;;;;;;;;4941736;28;20108;-73
2023/03/06 00:18:02;;;;;;;13.65;6.88;;;;;;;;;;4938956;28;20684;-72
2023/03/06 00:20:29;;;;;;;15.85;6.93;;;;;;;;;;4937186;28;23186;-73
2023/03/06 00:22:55;;;;;;;19.05;6.70;;;;;;;;;;4938984;28;20073;-73
2023/03/06 00:25:21;;;;;;;12.35;6.32;;;;;;;;;;4937022;28;20037;-73
2023/03/06 00:27:51;;;;;;;11.85;6.60;;;;;;;;;;4940983;28;20450;-72
2023/03/06 00:30:21;;;;;;;13.98;7.00;;;;;;;;;;4935599;28;20381;-72
2023/03/06 00:32:48;;;;;;;15.77;7.82;;;;;;;;;;4936694;28;20949;-74
2023/03/06 00:35:15;;;;;;;15.70;7.90;;;;;;;;;;4936209;28;20200;-72
2023/03/06 00:37:41;;;;;;;;;;;;;;;;;;4939801;28;20432;-73
2023/03/06 00:40:08;;;;;;;14.18;7.88;;;;;;;;;;4954555;28;20376;-73
2023/03/06 00:42:34;;;;;;;14.27;7.90;;;;;;;;;;4939719;28;20709;-72
2023/03/06 00:45:01;;;;;;;16.35;8.07;;;;;;;;;;4939472;28;20041;-73
2023/03/06 00:47:27;;;;;;;14.98;7.38;;;;;;;;;;4932970;28;20157;-73
2023/03/06 00:49:53;;;;;;;14.95;8.43;;;;;;;;;;4935165;28;20478;-72
2023/03/06 00:52:19;;;;;;;15.13;7.80;;;;;;;;;;4935626;28;20256;-73
2023/03/06 00:54:45;;;;;;;12.27;6.38;;;;;;;;;;4938043;28;20327;-73
2023/03/06 00:57:11;;;;;;;13.32;7.53;;;;;;;;;;4934871;28;20109;-73
2023/03/06 00:59:38;;;;;;;13.50;7.07;;;;;;;;;;4933747;28;20046;-72
2023/03/06 01:02:04;;;;;;;14.32;6.60;;;;;;;;;;4938348;28;20112;-73
2023/03/06 01:04:30;;;;;;;12.93;6.30;;;;;;;;;;4932474;28;20319;-73
2023/03/06 01:06:56;;;;;;;11.13;6.00;;;;;;;;;;4938644;28;20027;-72
2023/03/06 01:09:23;;;;;;;12.95;6.43;;;;;;;;;;4930173;28;20051;-72
2023/03/06 01:11:49;;;;;;;;;;;;;;;;;;4938180;28;20074;-73
2023/03/06 01:14:17;;;;;;;13.88;6.30;;;;;;;;;;4935956;28;20012;-73
2023/03/06 01:16:44;;;;;;;13.85;6.40;;;;;;;;;;4934101;28;20038;-73
2023/03/06 01:19:10;;;;;;;11.25;6.60;;;;;;;;;;4932236;28;20050;-72
2023/03/06 01:21:36;;;;;;;11.88;6.57;;;;;;;;;;4940067;28;20034;-73
2023/03/06 01:24:02;;;;;;;13.20;6.80;;;;;;;;;;4940589;28;20464;-73
2023/03/06 01:26:28;;;;;;;14.05;6.47;;;;;;;;;;4933618;28;20031;-72
2023/03/06 01:28:56;;;;;;;12.43;6.35;;;;;;;;;;4940687;28;20527;-73
2023/03/06 01:31:23;;;;;;;12.85;6.63;;;;;;;;;;4935737;28;20171;-73
2023/03/06 01:33:49;;;;;;;14.63;7.63;;;;;;;;;;4940590;28;20027;-72
2023/03/06 01:36:15;;;;;;;14.27;7.40;;;;;;;;;;4934118;28;20039;-73
2023/03/06 01:38:41;;;;;;;13.88;6.25;;;;;;;;;;4936498;28;20113;-72
2023/03/06 01:41:09;;;;;;;15.02;7.25;;;;;;;;;;4938131;28;20042;-74
2023/03/06 01:43:37;;;;;;;16.73;7.13;;;;;;;;;;4939890;28;20489;-74
2023/03/06 01:46:21;;;;;;;12.63;6.35;;;;;;;;;;4936843;28;20125;-74
2023/03/06 01:48:49;;;;;;;15.10;6.88;;;;;;;;;;4940966;28;20035;-72
2023/03/06 01:51:15;;;;;;;15.45;6.65;;;;;;;;;;4935979;28;20043;-72
2023/03/06 01:53:42;;;;;;;14.25;6.30;;;;;;;;;;4937146;28;20031;-72
2023/03/06 01:56:10;;;;;;;13.60;5.25;;;;;;;;;;4939585;28;20047;-74
2023/03/06 01:58:37;;;;;;;12.40;5.80;;;;;;;;;;4940740;28;20480;-72
2023/03/06 02:01:03;;;;;;;13.05;6.30;;;;;;;;;;4935446;28;20059;-72
2023/03/06 02:03:30;;;;;;;15.10;5.40;;;;;;;;;;4942659;28;20340;-71
2023/03/06 02:05:58;;;;;;;11.27;4.15;;;;;;;;;;4941146;28;20247;-71
2023/03/06 02:08:26;;;;;;;11.80;4.57;;;;;;;;;;4938448;28;20499;-75
2023/03/06 02:11:21;;;;;;;12.60;4.50;;;;;;;;;;4940615;28;20039;-74
2023/03/06 02:13:48;;;;;;;12.07;4.90;;;;;;;;;;4870044;29;20358;-73
2023/03/06 02:16:15;;;;;;;12.25;4.18;;;;;;;;;;4867208;29;20044;-74
2023/03/06 02:18:41;;;;;;;10.85;4.40;;;;;;;;;;4872600;29;20061;-74
2023/03/06 02:21:10;;;;;;;10.38;3.33;;;;;;;;;;4855359;29;20037;-73
2023/03/06 02:23:54;;;;;;;9.40;2.95;;;;;;;;;;4867122;29;20049;-74
2023/03/06 02:26:21;;;;;;;11.18;3.55;;;;;;;;;;4851647;29;20047;-73
2023/03/06 02:28:47;;;;;;;;;;;;;;;;;;4870866;29;20168;-74
2023/03/06 02:31:31;;;;;;;9.15;2.47;;;;;;;;;;4865836;29;19920;-74
2023/03/06 02:34:01;;;;;;;7.13;1.90;;;;;;;;;;4869427;29;20150;-72
2023/03/06 02:36:28;;;;;;;7.28;2.15;;;;;;;;;;4865588;29;20044;-74
2023/03/06 02:38:55;;;;;;;7.55;2.40;;;;;;;;;;4872682;29;20032;-72
2023/03/06 02:41:21;;;;;;;5.55;1.90;;;;;;;;;;4847460;29;20040;-72
2023/03/06 02:43:47;;;;;;;7.45;2.05;;;;;;;;;;4854856;29;20072;-72
2023/03/06 02:46:14;;;;;;;6.82;2.10;;;;;;;;;;4867170;29;20060;-74
2023/03/06 02:48:40;;;;;;;7.63;1.75;;;;;;;;;;4869434;29;20047;-74
2023/03/06 02:51:06;;;;;;;8.48;2.28;;;;;;;;;;4925730;28;20043;-71
2023/03/06 02:53:32;;;;;;;7.10;2.20;;;;;;;;;;4938347;28;20039;-72
2023/03/06 02:55:58;;;;;;;8.02;2.33;;;;;;;;;;4937170;28;20347;-72
2023/03/06 02:58:24;;;;;;;7.07;2.13;;;;;;;;;;4938892;28;20073;-72
2023/03/06 03:00:50;;;;;;;9.13;2.17;;;;;;;;;;4941597;28;20030;-72
2023/03/06 03:03:17;;;;;;;8.20;2.00;;;;;;;;;;4937564;28;20043;-72
2023/03/06 03:05:43;;;;;;;;;;;;;;;;;;4938253;28;20549;-72
2023/03/06 03:08:09;;;;;;;8.00;2.22;;;;;;;;;;4939772;28;19993;-72
2023/03/06 03:10:35;;;;;;;6.82;1.90;;;;;;;;;;4940165;28;20420;-72
2023/03/06 03:13:01;;;;;;;9.98;2.45;;;;;;;;;;4937967;28;20034;-72
2023/03/06 03:15:28;;;;;;;9.43;2.38;;;;;;;;;;4937797;28;20667;-71
2023/03/06 03:17:54;;;;;;;10.73;2.60;;;;;;;;;;4942631;28;20378;-72
2023/03/06 03:20:21;;;;;;;11.85;2.53;;;;;;;;;;4939439;28;20682;-71
2023/03/06 03:22:51;;;;;;;10.35;3.47;;;;;;;;;;4942685;28;20024;-72
2023/03/06 03:25:17;;;;;;;10.20;3.15;;;;;;;;;;4936439;28;20035;-72
2023/03/06 03:27:43;;;;;;;10.52;2.78;;;;;;;;;;4939586;28;20027;-72
2023/03/06 03:30:10;;;;;;;13.82;3.30;;;;;;;;;;4940463;28;20602;-72
2023/03/06 03:32:36;;;;;;;11.70;3.08;;;;;;;;;;4939471;28;20031;-72
2023/03/06 03:35:03;;;;;;;15.77;3.38;;;;;;;;;;4942470;28;20046;-72
2023/03/06 03:37:28;;;;;;;;;;;;;;;;;;4939373;28;20392;-72
2023/03/06 03:39:55;;;;;;;11.00;3.22;;;;;;;;;;4940876;28;20227;-74
2023/03/06 03:42:21;;;;;;;17.38;3.30;;;;;;;;;;4933149;28;20070;-73
2023/03/06 03:44:47;;;;;;;11.80;3.42;;;;;;;;;;4943548;28;20113;-72
2023/03/06 03:47:13;;;;;;;14.98;3.47;;;;;;;;;;4933153;28;20088;-72
2023/03/06 03:49:40;;;;;;;11.80;3.58;;;;;;;;;;4939646;28;20513;-72
2023/03/06 03:52:06;;;;;;;12.63;3.38;;;;;;;;;;4941327;28;20647;-72
2023/03/06 03:54:32;;;;;;;8.88;2.67;;;;;;;;;;4937900;28;20038;-72
2023/03/06 03:56:58;;;;;;;12.85;3.20;;;;;;;;;;4940882;28;20405;-71
2023/03/06 03:59:24;;;;;;;12.02;3.45;;;;;;;;;;4938958;28;20129;-72
2023/03/06 04:01:51;;;;;;;12.82;3.60;;;;;;;;;;4939414;28;20041;-72
2023/03/06 04:04:17;;;;;;;;;;;;;;;;;;4935878;28;20413;-72
2023/03/06 04:06:43;;;;;;;8.35;2.42;;;;;;;;;;4934962;28;19933;-72
2023/03/06 04:09:09;;;;;;;7.90;2.55;;;;;;;;;;4934911;28;20592;-72
2023/03/06 04:11:35;;;;;;;11.85;2.40;;;;;;;;;;4939589;28;20038;-72
2023/03/06 04:14:02;;;;;;;8.50;2.33;;;;;;;;;;4939198;28;20450;-72
2023/03/06 04:16:28;;;;;;;9.68;2.63;;;;;;;;;;4935859;28;20462;-72
2023/03/06 04:18:54;;;;;;;8.02;2.45;;;;;;;;;;4939884;28;20041;-72
2023/03/06 04:21:20;;;;;;;8.00;2.90;;;;;;;;;;4933563;28;20651;-72
2023/03/06 04:23:46;;;;;;;7.88;2.75;;;;;;;;;;4941448;28;20426;-71
2023/03/06 04:26:13;;;;;;;10.00;2.50;;;;;;;;;;4936717;28;20607;-73
2023/03/06 04:28:39;;;;;;;8.10;2.20;;;;;;;;;;4938456;28;20042;-72
2023/03/06 04:31:05;;;;;;;10.85;2.90;;;;;;;;;;4941452;28;20027;-72
2023/03/06 04:33:31;;;;;;;8.73;2.88;;;;;;;;;;4933825;28;20161;-72
2023/03/06 04:35:57;;;;;;;11.55;2.70;;;;;;;;;;4936639;28;20384;-72
2023/03/06 04:38:23;;;;;;;10.98;3.10;;;;;;;;;;4936736;28;20437;-72
2023/03/06 04:40:50;;;;;;;9.38;2.95;;;;;;;;;;4942081;28;20134;-72
2023/03/06 04:43:16;;;;;;;11.05;3.30;;;;;;;;;;4935249;28;20062;-72
2023/03/06 04:45:42;;;;;;;10.48;2.92;;;;;;;;;;4938648;28;20043;-72
2023/03/06 04:48:09;;;;;;;10.35;3.10;;;;;;;;;;4934800;28;20034;-72
2023/03/06 04:50:37;;;;;;;9.85;3.45;;;;;;;;;;4937200;28;20026;-72
2023/03/06 04:53:03;;;;;;;11.88;2.88;;;;;;;;;;4938393;28;20698;-72
2023/03/06 04:55:29;;;;;;;11.50;2.80;;;;;;;;;;4937358;28;20884;-72
2023/03/06 04:57:56;;;;;;;13.20;3.00;;;;;;;;;;4935915;28;20534;-72
2023/03/06 05:00:29;;;;;;;9.77;3.38;;;;;;;;;;4933247;28;20027;-72
2023/03/06 05:02:55;;;;;;;11.93;3.58;;;;;;;;;;4939279;28;20035;-72
2023/03/06 05:05:21;;;;;;;11.65;3.63;;;;;;;;;;4934500;28;20085;-72
2023/03/06 05:07:47;;;;;;;10.40;3.03;;;;;;;;;;4934794;28;20064;-72
2023/03/06 05:10:15;;;;;;;11.60;3.25;;;;;;;;;;4935168;28;20955;-74
2023/03/06 05:12:41;;;;;;;13.15;3.70;;;;;;;;;;4938460;28;20033;-72
2023/03/06 05:15:08;;;;;;;11.07;3.38;;;;;;;;;;4937851;28;20035;-72
2023/03/06 05:17:35;;;;;;;11.93;3.72;;;;;;;;;;4937680;28;20523;-73
2023/03/06 05:20:01;;;;;;;9.77;3.58;;;;;;;;;;4939772;28;20045;-73
2023/03/06 05:22:27;;;;;;;10.73;3.72;;;;;;;;;;4937152;28;20381;-73
2023/03/06 05:24:53;;;;;;;13.13;3.55;;;;;;;;;;4936288;28;20405;-72
2023/03/06 05:27:19;;;;;;;10.75;3.80;;;;;;;;;;4932593;28;20071;-72
2023/03/06 05:29:45;;;;;;;12.77;3.65;;;;;;;;;;4940497;28;20039;-72
2023/03/06 05:32:12;;;;;;;15.15;4.30;;;;;;;;;;4932469;28;20111;-73
2023/03/06 05:34:39;;;;;;;10.20;3.33;;;;;;;;;;4943571;28;20023;-72
2023/03/06 05:37:05;;;;;;;12.70;4.47;;;;;;;;;;4941213;28;20105;-73
2023/03/06 05:39:34;;;;;;;;;;;;;;;;;;4947230;28;20171;-74
2023/03/06 05:42:00;;;;;;;14.70;4.30;;;;;;;;;;4955458;28;19917;-74
2023/03/06 05:44:34;;;;;;;14.27;4.30;;;;;;;;;;4945587;28;20062;-72
2023/03/06 05:47:00;;;;;;;14.20;4.03;;;;;;;;;;4943174;28;20030;-73
2023/03/06 05:49:26;;;;;;;14.77;3.63;;;;;;;;;;4939425;28;20031;-72
2023/03/06 05:51:52;;;;;;;13.02;3.83;;;;;;;;;;4942259;28;20478;-72
2023/03/06 05:54:19;;;;;;;11.82;3.60;;;;;;;;;;4946738;28;20117;-72
2023/03/06 05:56:45;;;;;;;10.77;3.65;;;;;;;;;;4945696;28;20049;-72
2023/03/06 05:59:11;;;;;;;13.00;4.32;;;;;;;;;;4938367;28;20181;-72
2023/03/06 06:01:37;;;;;;;12.85;4.18;;;;;;;;;;4943668;28;20461;-72
2023/03/06 06:04:03;;;;;;;12.98;3.70;;;;;;;;;;4946108;28;20045;-72
2023/03/06 06:06:29;;;;;;;12.13;4.30;;;;;;;;;;4940268;28;20225;-72
2023/03/06 06:08:55;;;;;;;14.38;4.53;;;;;;;;;;4948849;28;20422;-72
2023/03/06 06:11:22;;;;;;;12.73;4.45;;;;;;;;;;4948516;28;20245;-72
2023/03/06 06:13:48;;;;;;;16.33;4.95;;;;;;;;;;4944993;28;20054;-74
2023/03/06 06:16:15;;;;;;;;;;;;;;;;;;4947780;28;20101;-74
2023/03/06 06:18:41;;;;;;;12.82;4.90;;;;;;;;;;4950862;28;19914;-73
2023/03/06 06:21:08;;;;;;;13.60;5.07;;;;;;;;;;4944973;28;20125;-74
2023/03/06 06:23:34;;;;;;;11.88;5.15;;;;;;;;;;4952523;28;20392;-74
2023/03/06 06:26:02;;;;;;;16.35;5.63;;;;;;;;;;4944005;28;20504;-73
2023/03/06 06:28:29;;;;;;;13.07;5.07;;;;;;;;;;4939310;28;20062;-73
2023/03/06 06:30:55;;;;;;;16.85;5.40;;;;;;;;;;4942265;28;20608;-73
2023/03/06 06:33:21;;;;;;;15.32;5.57;;;;;;;;;;4937976;28;20035;-73
2023/03/06 06:35:47;;;;;;;12.85;5.55;;;;;;;;;;4941783;28;20474;-73
2023/03/06 06:38:14;;;;;;;16.60;5.90;;;;;;;;;;4938888;28;20042;-73
2023/03/06 06:40:40;;;;;;;15.57;5.47;;;;;;;;;;4944552;28;20571;-73
2023/03/06 06:43:06;;;;;;;13.60;5.30;;;;;;;;;;4942093;28;20066;-74
2023/03/06 06:45:32;;;;;;;13.77;4.97;;;;;;;;;;4940903;28;20043;-73
2023/03/06 06:47:58;;;;;;;14.90;5.53;;;;;;;;;;4944739;28;20027;-73
2023/03/06 06:50:25;;;;;;;12.82;4.78;;;;;;;;;;4941014;28;20037;-73
2023/03/06 06:52:51;;;;;;;15.75;5.43;;;;;;;;;;4943317;28;20038;-72
2023/03/06 06:55:17;;;;;;;14.77;6.40;;;;;;;;;;4940601;28;20039;-72
2023/03/06 06:57:43;;;;;;;14.25;6.70;;;;;;;;;;4940310;28;20259;-74
2023/03/06 07:00:12;;;;;;;15.68;7.05;;;;;;;;;;4940277;28;20031;-73
2023/03/06 07:02:38;;;;;;;15.05;6.45;;;;;;;;;;4939007;28;20121;-74
2023/03/06 07:05:04;;;;;;;13.07;5.07;;;;;;;;;;4941835;28;20031;-72
2023/03/06 07:07:32;;;;;;;13.70;5.05;;;;;;;;;;4935877;28;20500;-72
2023/03/06 07:09:58;;;;;;;11.85;4.57;;;;;;;;;;4937918;28;20031;-72
2023/03/06 07:12:25;;;;;;;13.10;4.43;;;;;;;;;;4936300;28;20030;-72
2023/03/06 07:14:51;;;;;;;10.30;4.05;;;;;;;;;;4940817;28;20030;-72
2023/03/06 07:17:17;;;;;;;11.30;4.35;;;;;;;;;;4939079;28;20049;-72
2023/03/06 07:19:43;;;;;;;12.32;4.25;;;;;;;;;;4941465;28;20362;-72
2023/03/06 07:22:09;;;;;;;8.95;3.60;;;;;;;;;;4943466;28;20042;-74
2023/03/06 07:24:35;;;;;;;12.88;3.90;;;;;;;;;;4937275;28;20370;-72
2023/03/06 07:27:02;;;;;;;12.38;4.07;;;;;;;;;;4941855;28;20033;-73
2023/03/06 07:29:28;;;;;;;15.45;3.45;;;;;;;;;;4933429;28;20289;-73
2023/03/06 07:31:54;;;;;;;11.63;3.70;;;;;;;;;;4941530;28;20141;-72
2023/03/06 07:34:21;;;;;;;12.00;3.92;;;;;;;;;;4934343;28;20031;-73
2023/03/06 07:36:47;;;;;;;10.85;3.72;;;;;;;;;;4941540;28;20422;-73
2023/03/06 07:39:13;;;;;;;11.90;4.07;;;;;;;;;;4933748;28;20822;-72
2023/03/06 07:41:39;;;;;;;12.80;5.80;;;;;;;;;;4941905;28;20030;-72
2023/03/06 07:44:05;;;;;;;17.58;6.18;;;;;;;;;;4940867;28;20425;-73
2023/03/06 07:46:32;;;;;;;13.20;5.82;;;;;;;;;;4937784;28;20097;-72
2023/03/06 07:48:58;;;;;;;11.15;4.82;;;;;;;;;;4937241;28;20059;-72
2023/03/06 07:51:24;;;;;;;9.75;3.35;;;;;;;;;;4939165;28;20576;-73
2023/03/06 07:53:50;;;;;;;10.73;5.10;;;;;;;;;;4940638;28;20042;-72
2023/03/06 07:56:16;;;;;;;9.68;3.83;;;;;;;;;;4937077;28;20522;-73
2023/03/06 07:58:44;;;;;;;11.35;3.97;;;;;;;;;;4937555;28;20131;-72
2023/03/06 08:01:14;;;;;;;15.32;4.35;;;;;;;;;;4940638;28;20035;-74
2023/03/06 08:03:40;;;;;;;9.77;3.70;;;;;;;;;;4941748;28;20035;-72
2023/03/06 08:06:09;;;;;;;10.70;4.55;;;;;;;;;;4952140;28;20038;-71
2023/03/06 08:08:38;;;;;;;11.23;4.60;;;;;;;;;;4956799;28;20022;-72
2023/03/06 08:11:04;;;;;;;8.85;3.33;;;;;;;;;;4962137;28;20011;-72
2023/03/06 08:13:31;;;;;;;9.68;4.13;;;;;;;;;;4953180;28;20279;-73
2023/03/06 08:15:58;;;;;;;11.00;3.35;;;;;;;;;;4953600;28;20038;-72
2023/03/06 08:18:24;;;;;;;8.18;3.30;;;;;;;;;;4940550;28;20624;-73
2023/03/06 08:20:51;;;;;;;8.48;3.03;;;;;;;;;;4939845;28;20336;-73
2023/03/06 08:23:17;;;;;;;9.68;3.85;;;;;;;;;;4934737;28;20528;-73
2023/03/06 08:25:43;;;;;;;10.68;2.90;;;;;;;;;;4935835;28;20058;-73
2023/03/06 08:28:09;;;;;;;13.20;5.50;;;;;;;;;;4939731;28;20069;-73
2023/03/06 08:30:35;;;;;;;9.02;3.47;;;;;;;;;;4937233;28;20477;-73
2023/03/06 08:33:01;;;;;;;11.95;3.42;;;;;;;;;;4938062;28;20027;-73
2023/03/06 08:35:28;;;;;;;9.63;3.47;;;;;;;;;;4938641;28;20118;-73
2023/03/06 08:37:54;;;;;;;8.63;3.35;;;;;;;;;;4936504;28;20064;-73
2023/03/06 08:40:22;;;;;;;8.32;3.00;;;;;;;;;;4937304;28;20031;-72
2023/03/06 08:42:48;;;;;;;8.63;3.60;;;;;;;;;;4935740;28;20031;-72
2023/03/06 08:45:14;;;;;;;10.68;4.20;;;;;;;;;;4933248;28;20137;-73
2023/03/06 08:47:40;;;;;;;8.90;3.22;;;;;;;;;;4939000;28;20370;-72
2023/03/06 08:50:06;;;;;;;12.75;4.13;;;;;;;;;;4941721;28;20022;-72
2023/03/06 08:52:33;;;;;;;10.45;3.65;;;;;;;;;;4934708;28;20045;-72
2023/03/06 08:55:02;;;;;;;10.95;4.13;;;;;;;;;;4937125;28;20637;-74
2023/03/06 08:57:28;;;;;;;8.73;3.45;;;;;;;;;;4936658;28;20461;-73
2023/03/06 08:59:54;;;;;;;7.90;3.17;;;;;;;;;;4937496;28;20026;-72
2023/03/06 09:02:20;;;;;;;9.55;3.15;;;;;;;;;;4934389;28;20106;-73
2023/03/06 09:04:46;;;;;;;8.32;2.85;;;;;;;;;;4939789;28;20077;-73
2023/03/06 09:07:13;;;;;;;9.68;2.90;;;;;;;;;;4933051;28;20132;-73
2023/03/06 09:09:39;;;;;;;11.40;3.40;;;;;;;;;;4940572;28;20030;-72
2023/03/06 09:12:05;;;;;;;9.15;3.63;;;;;;;;;;4939554;28;20027;-72
2023/03/06 09:14:31;;;;;;;8.63;3.88;;;;;;;;;;4936657;28;20124;-72
2023/03/06 09:16:57;;;;;;;10.65;3.45;;;;;;;;;;4934743;28;20030;-72
2023/03/06 09:19:23;;;;;;;9.90;3.53;;;;;;;;;;4938445;28;20492;-74
2023/03/06 09:21:50;;;;;;;11.40;3.42;;;;;;;;;;4940806;28;20038;-73
2023/03/06 09:24:16;;;;;;;7.38;2.88;;;;;;;;;;4936089;28;20041;-72
2023/03/06 09:26:42;;;;;;;12.43;3.05;;;;;;;;;;4940129;28;20038;-72
2023/03/06 09:29:08;;;;;;;9.57;3.17;;;;;;;;;;4939581;28;20423;-72
2023/03/06 09:31:34;;;;;;;9.10;4.68;;;;;;;;;;4933666;28;20138;-72
2023/03/06 09:34:00;;;;;;;6.85;2.33;;;;;;;;;;4940793;28;20557;-72
2023/03/06 09:36:26;;;;;;;7.60;2.05;;;;;;;;;;4934757;28;20547;-72
2023/03/06 09:38:53;;;;;;;9.20;1.95;;;;;;;;;;4939485;28;20121;-74
2023/03/06 09:41:19;;;;;;;;;;;;;;;;;;4938033;28;20043;-72
2023/03/06 09:43:46;;;;;;;11.48;3.80;;;;;;;;;;4934771;28;20388;-72
2023/03/06 09:46:31;;;;;;;9.35;3.10;;;;;;;;;;4936544;28;20037;-72
2023/03/06 09:49:16;;;;;;;7.07;2.22;;;;;;;;;;4941293;28;20152;-73
2023/03/06 09:51:55;;;;;;;8.52;3.40;;;;;;;;;;4937124;28;20031;-72
2023/03/06 09:54:30;;;;;;;7.70;2.53;;;;;;;;;;4938075;28;20431;-72
2023/03/06 09:56:56;;;;;;;10.52;3.80;;;;;;;;;;4937835;28;20400;-73
2023/03/06 09:59:22;;;;;;;;;;;;;;;;;;4938311;28;20043;-73
2023/03/06 10:01:54;;;;;;;8.98;3.53;;;;;;;;;;4940394;28;19941;-73
2023/03/06 10:04:38;;;;;;;9.25;4.10;;;;;;;;;;4940586;28;20035;-72
2023/03/06 10:07:21;;;;;;;9.20;3.00;;;;;;;;;;4940848;28;20099;-72
2023/03/06 10:09:50;;;;;;;9.23;4.30;;;;;;;;;;4936443;28;20026;-72
2023/03/06 10:12:16;;;;;;;7.18;2.95;;;;;;;;;;4934245;28;20172;-72
2023/03/06 10:14:43;;;;;;;;;;;;;;;;;;4938976;28;20580;-72
2023/03/06 10:17:15;;;;;;;8.95;3.80;;;;;;;;;;4938068;28;19953;-75
2023/03/06 10:19:41;;;;;;;9.38;3.33;;;;;;;;;;4945405;28;20075;-76
2023/03/06 10:22:27;;;;;;;9.23;3.15;;;;;;;;;;4945216;28;20035;-76
2023/03/06 10:25:01;;;;;;;9.32;3.42;;;;;;;;;;4941712;28;20039;-75
2023/03/06 10:27:42;;;;;;;10.00;3.55;;;;;;;;;;4937447;28;20027;-75
2023/03/06 10:30:25;;;;;;;7.47;3.00;;;;;;;;;;4940649;28;20061;-75
2023/03/06 10:32:59;;;;;;;8.10;2.80;;;;;;;;;;4941524;28;20030;-75
2023/03/06 10:35:31;;;;;;;6.78;2.30;;;;;;;;;;4937444;28;20073;-75
2023/03/06 10:38:04;;;;;;;6.28;2.20;;;;;;;;;;4941991;28;20043;-75
2023/03/06 10:40:35;;;;;;;6.30;2.50;;;;;;;;;;4937346;28;22325;-75
2023/03/06 10:43:01;;;;;;;7.03;2.35;;;;;;;;;;4937931;28;20041;-76
2023/03/06 10:45:27;;;;;;;7.18;2.22;;;;;;;;;;4935064;28;20039;-75
2023/03/06 10:48:09;;;;;;;6.45;1.90;;;;;;;;;;4938202;28;20126;-76
2023/03/06 10:50:35;;;;;;;6.43;2.45;;;;;;;;;;4939790;28;20104;-76
2023/03/06 10:53:06;;;;;;;8.10;2.97;;;;;;;;;;4937314;28;20035;-76
2023/03/06 10:55:37;;;;;;;8.52;2.38;;;;;;;;;;4936749;28;20038;-75
2023/03/06 10:58:21;;;;;;;8.55;3.00;;;;;;;;;;4940026;28;20054;-75
2023/03/06 11:00:59;;;;;;;7.35;2.60;;;;;;;;;;4934901;28;20525;-75
2023/03/06 11:03:25;;;;;;;7.18;2.45;;;;;;;;;;4931568;28;20516;-75
2023/03/06 11:06:10;;;;;;;7.43;2.72;;;;;;;;;;4940041;28;20552;-75
2023/03/06 11:08:36;;;;;;;6.18;2.22;;;;;;;;;;4936662;28;21357;-76
2023/03/06 11:11:13;;;;;;;7.13;2.47;;;;;;;;;;4940690;28;20560;-76
2023/03/06 11:13:41;;;;;;;8.60;2.65;;;;;;;;;;4943190;28;20026;-77
2023/03/06 11:16:10;;;;;;;7.57;2.47;;;;;;;;;;4937796;28;20544;-75
2023/03/06 11:18:38;;;;;;;6.95;2.38;;;;;;;;;;4939995;28;20039;-76
2023/03/06 11:21:21;;;;;;;6.70;2.50;;;;;;;;;;4941027;28;20050;-76
2023/03/06 11:23:47;;;;;;;6.43;2.45;;;;;;;;;;4940181;28;20157;-75
2023/03/06 11:26:16;;;;;;;11.38;3.67;;;;;;;;;;4934003;28;20520;-75
2023/03/06 11:28:52;;;;;;;10.55;3.78;;;;;;;;;;4939063;28;20044;-75
2023/03/06 11:31:20;;;;;;;7.93;3.10;;;;;;;;;;4932008;28;20540;-75
2023/03/06 11:33:46;;;;;;;7.60;2.80;;;;;;;;;;4937919;28;20271;-75
2023/03/06 11:36:18;;;;;;;7.75;2.70;;;;;;;;;;4933620;28;20038;-75
2023/03/06 11:38:48;;;;;;;7.40;2.70;;;;;;;;;;4934663;28;20023;-75
2023/03/06 11:41:32;;;;;;;8.15;3.17;;;;;;;;;;4935727;28;20118;-76
2023/03/06 11:44:14;;;;;;;9.23;2.80;;;;;;;;;;4939012;28;20032;-76
2023/03/06 11:46:43;;;;;;;8.45;3.38;;;;;;;;;;4939216;28;20027;-76
2023/03/06 11:49:22;;;;;;;9.82;3.20;;;;;;;;;;4939321;28;20549;-76
2023/03/06 11:51:51;;;;;;;7.50;2.97;;;;;;;;;;4941258;28;20744;-76
2023/03/06 11:54:17;;;;;;;7.45;2.90;;;;;;;;;;4935376;28;20045;-76
2023/03/06 11:56:43;;;;;;;8.40;3.58;;;;;;;;;;4937547;28;20084;-77
2023/03/06 11:59:28;;;;;;;9.25;3.45;;;;;;;;;;4936833;28;20035;-76
2023/03/06 12:01:59;;;;;;;7.05;3.10;;;;;;;;;;4941844;28;20056;-75
2023/03/06 12:04:28;;;;;;;7.00;2.72;;;;;;;;;;4935615;28;20067;-75
2023/03/06 12:07:03;;;;;;;6.85;2.20;;;;;;;;;;4940329;28;20077;-75
2023/03/06 12:09:38;;;;;;;7.65;2.50;;;;;;;;;;4936112;28;20082;-76
2023/03/06 12:12:04;;;;;;;6.88;2.53;;;;;;;;;;4934435;28;20274;-77
2023/03/06 12:14:49;;;;;;;6.60;2.65;;;;;;;;;;4934453;28;24820;-77
2023/03/06 12:17:20;;;;;;;7.30;3.00;;;;;;;;;;4934876;28;20667;-77
2023/03/06 12:19:58;;;;;;;7.63;2.70;;;;;;;;;;4936144;28;20039;-78
2023/03/06 12:22:31;;;;;;;7.85;2.67;;;;;;;;;;4933183;28;20073;-78
2023/03/06 12:25:00;;;;;;;7.35;2.58;;;;;;;;;;4936269;28;20166;-77
2023/03/06 12:27:45;;;;;;;7.13;2.90;;;;;;;;;;4931797;28;20031;-77
2023/03/06 12:30:20;;;;;;;7.32;2.50;;;;;;;;;;4935436;28;20111;-78
2023/03/06 12:33:05;;;;;;;6.35;2.30;;;;;;;;;;4937761;28;20039;-78
2023/03/06 12:35:50;;;;;;;7.43;2.70;;;;;;;;;;4935888;28;20559;-78
2023/03/06 12:38:35;;;;;;;7.30;2.40;;;;;;;;;;4933883;28;20073;-78
2023/03/06 12:41:19;;;;;;;6.15;2.35;;;;;;;;;;4936928;28;20035;-78
2023/03/06 12:43:45;;;;;;;6.70;2.58;;;;;;;;;;4937269;28;20034;-78
2023/03/06 12:46:16;;;;;;;5.68;2.05;;;;;;;;;;4937478;28;20697;-78
2023/03/06 12:48:45;;;;;;;6.90;2.30;;;;;;;;;;4935449;28;20047;-78
2023/03/06 12:51:14;;;;;;;6.43;2.15;;;;;;;;;;4936695;28;20366;-79
2023/03/06 12:53:40;;;;;;;6.95;2.08;;;;;;;;;;4936378;28;20330;-76
2023/03/06 12:56:07;;;;;;;5.60;2.05;;;;;;;;;;4941017;28;20436;-76
2023/03/06 12:58:33;;;;;;;7.72;2.20;;;;;;;;;;4939649;28;20112;-75
2023/03/06 13:01:01;;;;;;;6.78;2.42;;;;;;;;;;4935136;28;20034;-76
2023/03/06 13:03:46;;;;;;;6.40;2.60;;;;;;;;;;4935503;28;20332;-76
2023/03/06 13:06:21;;;;;;;7.15;2.80;;;;;;;;;;4936511;28;20308;-75
2023/03/06 13:09:06;;;;;;;9.90;4.50;;;;;;;;;;4940057;28;20789;-76
2023/03/06 13:11:49;;;;;;;9.57;4.80;;;;;;;;;;4938057;28;20053;-77
2023/03/06 13:14:24;;;;;;;8.95;3.75;;;;;;;;;;4935857;28;20039;-83
2023/03/06 13:16:50;;;;;;;10.02;4.57;;;;;;;;;;4938682;28;20035;-81
2023/03/06 13:19:22;;;;;;;8.48;4.13;;;;;;;;;;4939553;28;20146;-79
2023/03/06 13:21:48;;;;;;;11.20;4.60;;;;;;;;;;4942157;28;20046;-79
2023/03/06 13:24:20;;;;;;;12.30;5.55;;;;;;;;;;4934942;28;20050;-75
2023/03/06 13:26:48;;;;;;;11.45;5.63;;;;;;;;;;4939390;28;20031;-76
2023/03/06 13:29:33;;;;;;;10.25;5.55;;;;;;;;;;4934502;28;20039;-76
2023/03/06 13:32:02;;;;;;;11.55;5.53;;;;;;;;;;4937200;28;20031;-76
2023/03/06 13:34:31;;;;;;;14.15;8.20;;;;;;;;;;4929067;28;20236;-76
2023/03/06 13:37:33;;;;;;;9.82;4.97;;;;;;;;;;4936438;28;20857;-75
2023/03/06 13:39:59;;;;;;;8.10;3.10;;;;;;;;;;4939742;28;20481;-77
2023/03/06 13:42:33;;;;;;;6.35;2.50;;;;;;;;;;4934919;28;20023;-77
2023/03/06 13:45:06;;;;;;;6.75;2.83;;;;;;;;;;4940739;28;20167;-76
2023/03/06 13:47:32;;;;;;;6.50;2.70;;;;;;;;;;4936654;28;20030;-76
2023/03/06 13:49:59;;;;;;;8.60;2.55;;;;;;;;;;4938748;28;20757;-77
2023/03/06 13:52:42;;;;;;;6.35;2.15;;;;;;;;;;4935131;28;20660;-75
2023/03/06 13:55:15;;;;;;;8.55;3.60;;;;;;;;;;4937896;28;20035;-76
2023/03/06 13:57:47;;;;;;;8.50;3.35;;;;;;;;;;4938798;28;20051;-75
2023/03/06 14:00:25;;;;;;;7.05;2.70;;;;;;;;;;4939031;28;20041;-76
2023/03/06 14:03:10;;;;;;;8.25;3.03;;;;;;;;;;4941676;28;20108;-76
2023/03/06 14:05:42;;;;;;;11.52;3.65;;;;;;;;;;4934322;28;20446;-76
2023/03/06 14:08:44;;;;;;;9.80;3.40;;;;;;;;;;4939781;28;20038;-77
2023/03/06 14:11:20;;;;;;;5.65;2.30;;;;;;;;;;4845540;29;20657;-76
2023/03/06 14:13:51;;;;;;;6.05;2.42;;;;;;;;;;4866075;29;20052;-77
2023/03/06 14:16:24;;;;;;;5.70;2.35;;;;;;;;;;4842805;29;20117;-77
2023/03/06 14:18:52;;;;;;;6.88;2.40;;;;;;;;;;4863388;29;20124;-76
2023/03/06 14:21:25;;;;;;;7.85;3.22;;;;;;;;;;4856261;29;20040;-77
2023/03/06 14:23:58;;;;;;;6.72;2.30;;;;;;;;;;4849184;29;20028;-74
2023/03/06 14:26:29;;;;;;;7.82;2.47;;;;;;;;;;4858291;29;20100;-74
2023/03/06 14:28:59;;;;;;;7.28;2.47;;;;;;;;;;4863900;29;20037;-73
2023/03/06 14:31:27;;;;;;;6.38;2.38;;;;;;;;;;4862019;29;20076;-72
2023/03/06 14:33:57;;;;;;;6.38;2.17;;;;;;;;;;4861983;29;20040;-69
2023/03/06 14:36:28;;;;;;;6.43;2.08;;;;;;;;;;4850301;29;20707;-79
2023/03/06 14:38:56;;;;;;;6.50;2.40;;;;;;;;;;4868374;29;20441;-77
2023/03/06 14:41:23;;;;;;;7.60;2.47;;;;;;;;;;4837849;29;20043;-77
2023/03/06 14:43:50;;;;;;;6.68;2.05;;;;;;;;;;4864830;29;20424;-76
2023/03/06 14:46:20;;;;;;;6.50;2.60;;;;;;;;;;4929380;28;20070;-77
2023/03/06 14:48:47;;;;;;;6.15;2.50;;;;;;;;;;4952411;28;20300;-76
2023/03/06 14:51:21;;;;;;;7.03;2.30;;;;;;;;;;4950827;28;20032;-76